sensor_id;sensor_type;location;lat;lon;timestamp;pressure;altitude;pressure_sealevel;temperature;humidity
51781;BME280;37844;57.126;24.288;2023-02-18T00:01:09;98777.16;;;2.45;100.00
51781;BME280;37844;57.126;24.288;2023-02-18T00:03:35;98776.34;;;2.51;100.00
51781;BME280;37844;57.126;24.288;2023-02-18T00:06:08;98759.38;;;2.47;100.00
51781;BME280;37844;57.126;24.288;2023-02-18T00:08:34;98744.13;;;2.47;100.00
51781;BME280;37844;57.126;24.288;2023-02-18T00:10:59;98755.31;;;2.61;100.00
51781;BME280;37844;57.126;24.288;2023-02-18T00:13:25;98748.59;;;2.68;100.00
51781;BME280;37844;57.126;24.288;2023-02-18T00:15:50;98741.84;;;2.70;100.00
51781;BME280;37844;57.126;24.288;2023-02-18T00:18:15;98741.97;;;2.81;100.00
51781;BME280;37844;57.126;24.288;2023-02-18T00:20:41;98731.75;;;2.78;100.00
51781;BME280;37844;57.126;24.288;2023-02-18T00:23:06;98725.00;;;2.78;100.00
51781;BME280;37844;57.126;24.288;2023-02-18T00:25:32;98721.59;;;2.79;100.00
51781;BME280;37844;57.126;24.288;2023-02-18T00:27:57;98717.38;;;2.81;100.00
51781;BME280;37844;57.126;24.288;2023-02-18T00:30:22;98697.97;;;2.88;100.00
51781;BME280;37844;57.126;24.288;2023-02-18T00:32:48;98700.59;;;2.97;100.00
51781;BME280;37844;57.126;24.288;2023-02-18T00:35:13;98697.22;;;2.98;100.00
51781;BME280;37844;57.126;24.288;2023-02-18T00:37:38;98700.66;;;3.02;100.00
51781;BME280;37844;57.126;24.288;2023-02-18T00:40:04;98687.91;;;3.00;100.00
51781;BME280;37844;57.126;24.288;2023-02-18T00:42:30;98676.03;;;3.04;100.00
51781;BME280;37844;57.126;24.288;2023-02-18T00:44:55;98691.44;;;3.14;100.00
51781;BME280;37844;57.126;24.288;2023-02-18T00:47:20;98672.75;;;3.12;100.00
51781;BME280;37844;57.126;24.288;2023-02-18T00:49:45;98664.28;;;3.15;100.00
51781;BME280;37844;57.126;24.288;2023-02-18T00:52:11;98670.25;;;3.20;100.00
51781;BME280;37844;57.126;24.288;2023-02-18T00:54:36;98661.06;;;3.33;100.00
51781;BME280;37844;57.126;24.288;2023-02-18T00:57:02;98658.56;;;3.40;100.00
51781;BME280;37844;57.126;24.288;2023-02-18T00:59:27;98657.75;;;3.45;100.00
51781;BME280;37844;57.126;24.288;2023-02-18T01:01:52;98647.63;;;3.55;100.00
51781;BME280;37844;57.126;24.288;2023-02-18T01:04:18;98641.63;;;3.46;100.00
51781;BME280;37844;57.126;24.288;2023-02-18T01:06:43;98650.19;;;3.57;100.00
51781;BME280;37844;57.126;24.288;2023-02-18T01:09:09;98629.84;;;3.58;100.00
51781;BME280;37844;57.126;24.288;2023-02-18T01:11:34;98629.00;;;3.63;100.00
51781;BME280;37844;57.126;24.288;2023-02-18T01:13:59;98618.88;;;3.70;100.00
51781;BME280;37844;57.126;24.288;2023-02-18T01:16:25;98625.59;;;3.62;100.00
51781;BME280;37844;57.126;24.288;2023-02-18T01:18:50;98616.31;;;3.69;100.00
51781;BME280;37844;57.126;24.288;2023-02-18T01:21:16;98612.94;;;3.71;100.00
51781;BME280;37844;57.126;24.288;2023-02-18T01:23:41;98610.44;;;3.77;100.00
51781;BME280;37844;57.126;24.288;2023-02-18T01:26:07;98599.34;;;3.71;100.00
51781;BME280;37844;57.126;24.288;2023-02-18T01:28:33;98593.41;;;3.73;100.00
51781;BME280;37844;57.126;24.288;2023-02-18T01:31:03;98596.84;;;3.80;100.00
51781;BME280;37844;57.126;24.288;2023-02-18T01:33:28;98588.34;;;3.81;100.00
51781;BME280;37844;57.126;24.288;2023-02-18T01:35:53;98586.69;;;3.85;100.00
51781;BME280;37844;57.126;24.288;2023-02-18T01:38:19;98573.09;;;3.90;100.00
51781;BME280;37844;57.126;24.288;2023-02-18T01:40:46;98576.53;;;3.92;100.00
51781;BME280;37844;57.126;24.288;2023-02-18T01:43:15;98579.91;;;3.93;100.00
51781;BME280;37844;57.126;24.288;2023-02-18T01:46:03;98563.81;;;4.01;100.00
51781;BME280;37844;57.126;24.288;2023-02-18T01:48:31;98556.16;;;4.03;100.00
51781;BME280;37844;57.126;24.288;2023-02-18T01:54:15;98529.00;;;4.08;100.00
51781;BME280;37844;57.126;24.288;2023-02-18T01:56:15;98532.38;;;4.10;100.00
51781;BME280;37844;57.126;24.288;2023-02-18T01:58:41;98523.91;;;4.08;100.00
51781;BME280;37844;57.126;24.288;2023-02-18T02:01:07;98526.44;;;4.13;100.00
51781;BME280;37844;57.126;24.288;2023-02-18T02:03:33;98512.00;;;4.19;100.00
51781;BME280;37844;57.126;24.288;2023-02-18T02:05:59;98513.75;;;4.20;100.00
51781;BME280;37844;57.126;24.288;2023-02-18T02:08:24;98508.63;;;4.20;100.00
51781;BME280;37844;57.126;24.288;2023-02-18T02:11:06;98512.88;;;4.23;100.00
51781;BME280;37844;57.126;24.288;2023-02-18T02:16:09;98488.28;;;4.34;100.00
51781;BME280;37844;57.126;24.288;2023-02-18T02:18:55;98494.22;;;4.41;100.00
51781;BME280;37844;57.126;24.288;2023-02-18T02:29:00;98476.38;;;4.56;100.00
51781;BME280;37844;57.126;24.288;2023-02-18T02:39:29;98467.88;;;4.54;100.00
51781;BME280;37844;57.126;24.288;2023-02-18T02:42:03;98465.31;;;4.48;100.00
51781;BME280;37844;57.126;24.288;2023-02-18T02:44:54;98466.16;;;4.52;100.00
51781;BME280;37844;57.126;24.288;2023-02-18T02:47:25;98450.88;;;4.53;100.00
51781;BME280;37844;57.126;24.288;2023-02-18T02:52:37;98446.59;;;4.52;100.00
51781;BME280;37844;57.126;24.288;2023-02-18T02:55:08;98445.75;;;4.50;100.00
51781;BME280;37844;57.126;24.288;2023-02-18T02:57:41;98451.69;;;4.46;100.00
51781;BME280;37844;57.126;24.288;2023-02-18T03:00:07;98437.25;;;4.40;100.00
51781;BME280;37844;57.126;24.288;2023-02-18T03:13:21;98431.31;;;4.44;100.00
51781;BME280;37844;57.126;24.288;2023-02-18T03:21:02;98417.69;;;4.36;100.00
51781;BME280;37844;57.126;24.288;2023-02-18T03:23:31;98415.16;;;4.35;100.00
51781;BME280;37844;57.126;24.288;2023-02-18T03:25:58;98406.66;;;4.30;100.00
51781;BME280;37844;57.126;24.288;2023-02-18T03:28:25;98404.06;;;4.22;100.00
51781;BME280;37844;57.126;24.288;2023-02-18T03:30:58;98401.53;;;4.23;100.00
51781;BME280;37844;57.126;24.288;2023-02-18T03:33:25;98412.59;;;4.25;100.00
51781;BME280;37844;57.126;24.288;2023-02-18T03:35:51;98409.19;;;4.27;100.00
51781;BME280;37844;57.126;24.288;2023-02-18T03:40:49;98398.13;;;4.24;100.00
51781;BME280;37844;57.126;24.288;2023-02-18T03:43:15;98390.50;;;4.21;100.00
51781;BME280;37844;57.126;24.288;2023-02-18T03:45:40;98387.09;;;4.19;100.00
51781;BME280;37844;57.126;24.288;2023-02-18T03:48:06;98386.25;;;4.19;100.00
51781;BME280;37844;57.126;24.288;2023-02-18T03:50:31;98370.94;;;4.16;100.00
51781;BME280;37844;57.126;24.288;2023-02-18T03:52:56;98373.50;;;4.11;100.00
51781;BME280;37844;57.126;24.288;2023-02-18T03:55:22;98375.19;;;4.08;100.00
51781;BME280;37844;57.126;24.288;2023-02-18T03:57:47;98381.97;;;4.02;100.00
51781;BME280;37844;57.126;24.288;2023-02-18T04:00:13;98390.47;;;4.08;100.00
51781;BME280;37844;57.126;24.288;2023-02-18T04:02:39;98370.94;;;4.07;100.00
51781;BME280;37844;57.126;24.288;2023-02-18T04:05:11;98369.22;;;4.01;100.00
51781;BME280;37844;57.126;24.288;2023-02-18T04:07:42;98353.09;;;4.07;100.00
51781;BME280;37844;57.126;24.288;2023-02-18T04:10:08;98365.84;;;4.07;100.00
51781;BME280;37844;57.126;24.288;2023-02-18T04:12:34;98355.66;;;4.07;100.00
51781;BME280;37844;57.126;24.288;2023-02-18T04:14:59;98343.72;;;4.06;100.00
51781;BME280;37844;57.126;24.288;2023-02-18T04:17:24;98342.06;;;4.06;100.00
51781;BME280;37844;57.126;24.288;2023-02-18T04:19:50;98363.28;;;4.02;100.00
51781;BME280;37844;57.126;24.288;2023-02-18T04:22:15;98343.72;;;3.93;100.00
51781;BME280;37844;57.126;24.288;2023-02-18T04:24:41;98336.97;;;4.01;100.00
51781;BME280;37844;57.126;24.288;2023-02-18T04:27:06;98331.84;;;4.03;100.00
51781;BME280;37844;57.126;24.288;2023-02-18T04:29:31;98334.38;;;4.03;100.00
51781;BME280;37844;57.126;24.288;2023-02-18T04:31:56;98328.44;;;4.02;100.00
51781;BME280;37844;57.126;24.288;2023-02-18T04:34:22;98314.84;;;4.00;100.00
51781;BME280;37844;57.126;24.288;2023-02-18T04:36:47;98335.22;;;3.96;100.00
51781;BME280;37844;57.126;24.288;2023-02-18T04:39:13;98314.00;;;4.01;100.00
51781;BME280;37844;57.126;24.288;2023-02-18T04:41:38;98328.47;;;3.99;100.00
51781;BME280;37844;57.126;24.288;2023-02-18T04:44:03;98319.94;;;3.96;100.00
51781;BME280;37844;57.126;24.288;2023-02-18T04:46:29;98320.81;;;3.99;100.00
51781;BME280;37844;57.126;24.288;2023-02-18T04:48:55;98322.50;;;4.00;100.00
51781;BME280;37844;57.126;24.288;2023-02-18T04:51:21;98327.59;;;4.00;100.00
51781;BME280;37844;57.126;24.288;2023-02-18T04:53:46;98329.31;;;4.00;100.00
51781;BME280;37844;57.126;24.288;2023-02-18T04:56:12;98325.06;;;3.99;100.00
51781;BME280;37844;57.126;24.288;2023-02-18T04:58:37;98319.94;;;4.00;100.00
51781;BME280;37844;57.126;24.288;2023-02-18T05:01:03;98321.66;;;4.03;100.00
51781;BME280;37844;57.126;24.288;2023-02-18T05:03:29;98322.50;;;4.02;100.00
51781;BME280;37844;57.126;24.288;2023-02-18T05:05:54;98320.81;;;4.07;100.00
51781;BME280;37844;57.126;24.288;2023-02-18T05:08:20;98326.75;;;4.04;100.00
51781;BME280;37844;57.126;24.288;2023-02-18T05:10:45;98337.78;;;4.05;100.00
51781;BME280;37844;57.126;24.288;2023-02-18T05:13:11;98323.38;;;4.04;100.00
51781;BME280;37844;57.126;24.288;2023-02-18T05:15:36;98330.16;;;4.00;100.00
51781;BME280;37844;57.126;24.288;2023-02-18T05:18:01;98322.50;;;4.02;100.00
51781;BME280;37844;57.126;24.288;2023-02-18T05:20:27;98319.09;;;4.03;100.00
51781;BME280;37844;57.126;24.288;2023-02-18T05:22:52;98309.78;;;4.03;100.00
51781;BME280;37844;57.126;24.288;2023-02-18T05:25:18;98317.41;;;4.03;100.00
51781;BME280;37844;57.126;24.288;2023-02-18T05:27:43;98336.97;;;4.01;100.00
51781;BME280;37844;57.126;24.288;2023-02-18T05:30:09;98316.56;;;4.01;100.00
51781;BME280;37844;57.126;24.288;2023-02-18T05:32:34;98320.81;;;3.99;100.00
51781;BME280;37844;57.126;24.288;2023-02-18T05:35:00;98326.75;;;3.97;100.00
51781;BME280;37844;57.126;24.288;2023-02-18T05:37:25;98321.63;;;3.98;100.00
51781;BME280;37844;57.126;24.288;2023-02-18T05:39:50;98321.66;;;3.95;100.00
51781;BME280;37844;57.126;24.288;2023-02-18T05:42:15;98324.22;;;3.97;100.00
51781;BME280;37844;57.126;24.288;2023-02-18T05:44:41;98319.13;;;4.01;100.00
51781;BME280;37844;57.126;24.288;2023-02-18T05:47:08;98321.63;;;3.98;100.00
51781;BME280;37844;57.126;24.288;2023-02-18T05:49:34;98325.03;;;4.00;100.00
51781;BME280;37844;57.126;24.288;2023-02-18T05:51:59;98326.75;;;3.98;100.00
51781;BME280;37844;57.126;24.288;2023-02-18T05:54:25;98335.25;;;3.97;100.00
51781;BME280;37844;57.126;24.288;2023-02-18T05:56:50;98331.84;;;3.98;100.00
51781;BME280;37844;57.126;24.288;2023-02-18T05:59:16;98330.97;;;4.01;100.00
51781;BME280;37844;57.126;24.288;2023-02-18T06:01:42;98332.69;;;4.00;100.00
51781;BME280;37844;57.126;24.288;2023-02-18T06:04:07;98334.41;;;3.97;100.00
51781;BME280;37844;57.126;24.288;2023-02-18T06:06:33;98331.84;;;4.01;100.00
51781;BME280;37844;57.126;24.288;2023-02-18T06:08:58;98337.78;;;4.05;100.00
51781;BME280;37844;57.126;24.288;2023-02-18T06:11:24;98334.41;;;4.06;100.00
51781;BME280;37844;57.126;24.288;2023-02-18T06:13:49;98336.97;;;4.01;100.00
51781;BME280;37844;57.126;24.288;2023-02-18T06:16:15;98331.84;;;4.04;100.00
51781;BME280;37844;57.126;24.288;2023-02-18T06:18:40;98335.25;;;4.00;100.00
51781;BME280;37844;57.126;24.288;2023-02-18T06:21:05;98340.34;;;4.02;100.00
51781;BME280;37844;57.126;24.288;2023-02-18T06:23:31;98336.09;;;3.99;100.00
51781;BME280;37844;57.126;24.288;2023-02-18T06:25:56;98342.03;;;4.03;100.00
51781;BME280;37844;57.126;24.288;2023-02-18T06:28:21;98346.31;;;4.04;100.00
51781;BME280;37844;57.126;24.288;2023-02-18T06:30:47;98343.75;;;4.04;100.00
51781;BME280;37844;57.126;24.288;2023-02-18T06:33:13;98345.47;;;4.08;100.00
51781;BME280;37844;57.126;24.288;2023-02-18T06:35:38;98341.22;;;4.09;100.00
51781;BME280;37844;57.126;24.288;2023-02-18T06:38:04;98350.53;;;4.07;100.00
51781;BME280;37844;57.126;24.288;2023-02-18T06:40:29;98351.38;;;4.07;100.00
51781;BME280;37844;57.126;24.288;2023-02-18T06:42:54;98354.81;;;4.11;100.00
51781;BME280;37844;57.126;24.288;2023-02-18T06:45:20;98367.53;;;4.08;100.00
51781;BME280;37844;57.126;24.288;2023-02-18T06:47:45;98353.94;;;4.07;100.00
51781;BME280;37844;57.126;24.288;2023-02-18T06:50:11;98365.84;;;4.05;100.00
51781;BME280;37844;57.126;24.288;2023-02-18T06:52:36;98364.97;;;4.08;100.00
51781;BME280;37844;57.126;24.288;2023-02-18T06:55:03;98376.88;;;4.04;100.00
51781;BME280;37844;57.126;24.288;2023-02-18T06:57:28;98375.19;;;4.09;100.00
51781;BME280;37844;57.126;24.288;2023-02-18T06:59:54;98379.41;;;4.01;100.00
51781;BME280;37844;57.126;24.288;2023-02-18T07:02:19;98381.13;;;4.00;100.00
51781;BME280;37844;57.126;24.288;2023-02-18T07:04:44;98389.63;;;3.99;100.00
51781;BME280;37844;57.126;24.288;2023-02-18T07:07:10;98387.91;;;3.98;100.00
51781;BME280;37844;57.126;24.288;2023-02-18T07:09:35;98386.22;;;3.99;100.00
51781;BME280;37844;57.126;24.288;2023-02-18T07:12:01;98392.16;;;4.02;100.00
51781;BME280;37844;57.126;24.288;2023-02-18T07:14:26;98384.53;;;4.02;100.00
51781;BME280;37844;57.126;24.288;2023-02-18T07:16:52;98390.47;;;4.04;100.00
51781;BME280;37844;57.126;24.288;2023-02-18T07:19:18;98390.47;;;4.00;100.00
51781;BME280;37844;57.126;24.288;2023-02-18T07:21:43;98393.03;;;4.00;100.00
51781;BME280;37844;57.126;24.288;2023-02-18T07:24:08;98390.47;;;4.03;100.00
51781;BME280;37844;57.126;24.288;2023-02-18T07:26:34;98400.69;;;4.06;100.00
51781;BME280;37844;57.126;24.288;2023-02-18T07:28:59;98404.94;;;4.04;100.00
51781;BME280;37844;57.126;24.288;2023-02-18T07:31:24;98394.72;;;4.02;100.00
51781;BME280;37844;57.126;24.288;2023-02-18T07:33:50;98404.91;;;4.02;100.00
51781;BME280;37844;57.126;24.288;2023-02-18T07:36:15;98402.38;;;4.04;100.00
51781;BME280;37844;57.126;24.288;2023-02-18T07:38:41;98399.84;;;4.04;100.00
51781;BME280;37844;57.126;24.288;2023-02-18T07:41:10;98401.53;;;4.10;100.00
51781;BME280;37844;57.126;24.288;2023-02-18T07:43:36;98397.28;;;4.02;100.00
51781;BME280;37844;57.126;24.288;2023-02-18T07:46:04;98405.78;;;4.06;100.00
51781;BME280;37844;57.126;24.288;2023-02-18T07:48:29;98409.19;;;4.08;100.00
51781;BME280;37844;57.126;24.288;2023-02-18T07:50:55;98405.78;;;4.08;100.00
51781;BME280;37844;57.126;24.288;2023-02-18T07:53:20;98407.47;;;4.06;100.00
51781;BME280;37844;57.126;24.288;2023-02-18T07:55:46;98409.16;;;4.05;100.00
51781;BME280;37844;57.126;24.288;2023-02-18T07:58:21;98406.66;;;4.08;100.00
51781;BME280;37844;57.126;24.288;2023-02-18T08:00:47;98401.53;;;4.08;100.00
51781;BME280;37844;57.126;24.288;2023-02-18T08:03:14;98406.63;;;4.14;100.00
51781;BME280;37844;57.126;24.288;2023-02-18T08:05:39;98415.13;;;4.21;100.00
51781;BME280;37844;57.126;24.288;2023-02-18T08:08:05;98410.88;;;4.21;100.00
51781;BME280;37844;57.126;24.288;2023-02-18T08:10:30;98417.69;;;4.33;100.00
51781;BME280;37844;57.126;24.288;2023-02-18T08:12:56;98415.13;;;4.33;100.00
51781;BME280;37844;57.126;24.288;2023-02-18T08:15:21;98427.91;;;4.39;100.00
51781;BME280;37844;57.126;24.288;2023-02-18T08:17:46;98415.16;;;4.52;100.00
51781;BME280;37844;57.126;24.288;2023-02-18T08:20:12;98432.16;;;4.60;100.00
51781;BME280;37844;57.126;24.288;2023-02-18T08:22:38;98425.34;;;4.59;100.00
51781;BME280;37844;57.126;24.288;2023-02-18T08:25:03;98431.28;;;4.64;100.00
51781;BME280;37844;57.126;24.288;2023-02-18T08:27:28;98432.13;;;4.76;100.00
51781;BME280;37844;57.126;24.288;2023-02-18T08:29:54;98439.81;;;4.77;100.00
51781;BME280;37844;57.126;24.288;2023-02-18T08:32:20;98440.66;;;4.79;100.00
51781;BME280;37844;57.126;24.288;2023-02-18T08:34:45;98444.91;;;4.77;100.00
51781;BME280;37844;57.126;24.288;2023-02-18T08:37:11;98450.84;;;4.85;100.00
51781;BME280;37844;57.126;24.288;2023-02-18T08:39:36;98452.53;;;4.88;100.00
51781;BME280;37844;57.126;24.288;2023-02-18T08:42:02;98451.69;;;4.91;100.00
51781;BME280;37844;57.126;24.288;2023-02-18T08:44:28;98452.53;;;4.99;100.00
51781;BME280;37844;57.126;24.288;2023-02-18T08:46:53;98466.13;;;5.02;100.00
51781;BME280;37844;57.126;24.288;2023-02-18T08:49:18;98464.44;;;5.01;100.00
51781;BME280;37844;57.126;24.288;2023-02-18T08:51:49;98471.25;;;4.98;100.00
51781;BME280;37844;57.126;24.288;2023-02-18T08:54:14;98473.81;;;4.96;100.00
51781;BME280;37844;57.126;24.288;2023-02-18T08:56:40;98476.38;;;4.90;100.00
51781;BME280;37844;57.126;24.288;2023-02-18T08:59:05;98476.38;;;4.85;100.00
51781;BME280;37844;57.126;24.288;2023-02-18T09:01:31;98479.75;;;4.81;100.00
51781;BME280;37844;57.126;24.288;2023-02-18T09:03:56;98489.13;;;4.81;100.00
51781;BME280;37844;57.126;24.288;2023-02-18T09:06:22;98489.13;;;4.78;100.00
51781;BME280;37844;57.126;24.288;2023-02-18T09:08:47;98503.59;;;4.83;100.00
51781;BME280;37844;57.126;24.288;2023-02-18T09:11:12;98501.91;;;4.75;100.00
51781;BME280;37844;57.126;24.288;2023-02-18T09:13:38;98509.56;;;4.73;100.00
51781;BME280;37844;57.126;24.288;2023-02-18T09:16:16;98509.53;;;4.62;100.00
51781;BME280;37844;57.126;24.288;2023-02-18T09:18:42;98515.47;;;4.43;100.00
51781;BME280;37844;57.126;24.288;2023-02-18T09:21:08;98512.06;;;4.30;100.00
51781;BME280;37844;57.126;24.288;2023-02-18T09:23:35;98525.63;;;4.15;100.00
51781;BME280;37844;57.126;24.288;2023-02-18T09:26:03;98520.50;;;4.17;100.00
51781;BME280;37844;57.126;24.288;2023-02-18T09:28:29;98531.53;;;4.05;100.00
51781;BME280;37844;57.126;24.288;2023-02-18T09:30:54;98536.63;;;4.02;100.00
51781;BME280;37844;57.126;24.288;2023-02-18T09:33:20;98532.31;;;3.90;100.00
51781;BME280;37844;57.126;24.288;2023-02-18T09:35:45;98545.03;;;3.82;100.00
51781;BME280;37844;57.126;24.288;2023-02-18T09:38:12;98545.88;;;3.81;100.00
51781;BME280;37844;57.126;24.288;2023-02-18T09:40:38;98553.56;;;3.89;100.00
51781;BME280;37844;57.126;24.288;2023-02-18T09:43:06;98559.53;;;3.94;100.00
51781;BME280;37844;57.126;24.288;2023-02-18T09:45:31;98552.66;;;3.78;100.00
51781;BME280;37844;57.126;24.288;2023-02-18T09:47:57;98564.53;;;3.71;100.00
51781;BME280;37844;57.126;24.288;2023-02-18T09:52:49;98574.72;;;3.71;100.00
51781;BME280;37844;57.126;24.288;2023-02-18T09:55:48;98579.81;;;3.73;100.00
51781;BME280;37844;57.126;24.288;2023-02-18T09:58:17;98584.94;;;3.76;100.00
51781;BME280;37844;57.126;24.288;2023-02-18T10:00:44;98585.75;;;3.69;100.00
51781;BME280;37844;57.126;24.288;2023-02-18T10:03:13;98581.50;;;3.69;100.00
51781;BME280;37844;57.126;24.288;2023-02-18T10:05:50;98600.16;;;3.64;100.00
51781;BME280;37844;57.126;24.288;2023-02-18T10:08:25;98593.31;;;3.58;100.00
51781;BME280;37844;57.126;24.288;2023-02-18T10:10:51;98601.72;;;3.48;100.00
51781;BME280;37844;57.126;24.288;2023-02-18T10:13:18;98609.34;;;3.40;100.00
51781;BME280;37844;57.126;24.288;2023-02-18T10:15:50;98614.41;;;3.42;100.00
51781;BME280;37844;57.126;24.288;2023-02-18T10:18:27;98613.63;;;3.44;100.00
51781;BME280;37844;57.126;24.288;2023-02-18T10:20:55;98622.91;;;3.40;100.00
51781;BME280;37844;57.126;24.288;2023-02-18T10:23:22;98627.94;;;3.31;100.00
51781;BME280;37844;57.126;24.288;2023-02-18T10:25:48;98622.78;;;3.24;100.00
51781;BME280;37844;57.126;24.288;2023-02-18T10:28:15;98619.34;;;3.18;100.00
51781;BME280;37844;57.126;24.288;2023-02-18T10:30:45;98630.38;;;3.19;100.00
51781;BME280;37844;57.126;24.288;2023-02-18T10:33:32;98630.44;;;3.25;100.00
51781;BME280;37844;57.126;24.288;2023-02-18T10:36:02;98623.47;;;3.06;100.00
51781;BME280;37844;57.126;24.288;2023-02-18T10:38:37;98642.97;;;3.04;100.00
51781;BME280;37844;57.126;24.288;2023-02-18T10:41:41;98642.94;;;3.01;100.00
51781;BME280;37844;57.126;24.288;2023-02-18T10:51:36;98661.44;;;2.84;100.00
51781;BME280;37844;57.126;24.288;2023-02-18T10:54:01;98657.13;;;2.75;100.00
51781;BME280;37844;57.126;24.288;2023-02-18T10:56:37;98663.09;;;2.79;100.00
51781;BME280;37844;57.126;24.288;2023-02-18T11:01:31;98666.56;;;2.89;100.00
51781;BME280;37844;57.126;24.288;2023-02-18T11:04:04;98663.19;;;2.88;100.00
51781;BME280;37844;57.126;24.288;2023-02-18T11:06:31;98666.63;;;2.93;100.00
51781;BME280;37844;57.126;24.288;2023-02-18T11:08:58;98675.94;;;2.93;100.00
51781;BME280;37844;57.126;24.288;2023-02-18T11:11:27;98673.47;;;2.97;100.00
51781;BME280;37844;57.126;24.288;2023-02-18T11:13:55;98684.50;;;3.00;100.00
51781;BME280;37844;57.126;24.288;2023-02-18T11:16:21;98683.59;;;2.96;100.00
51781;BME280;37844;57.126;24.288;2023-02-18T11:18:47;98680.28;;;3.03;100.00
51781;BME280;37844;57.126;24.288;2023-02-18T11:21:20;98687.94;;;3.02;100.00
51781;BME280;37844;57.126;24.288;2023-02-18T11:23:47;98688.78;;;3.02;100.00
51781;BME280;37844;57.126;24.288;2023-02-18T11:26:13;98692.19;;;3.06;100.00
51781;BME280;37844;57.126;24.288;2023-02-18T11:28:47;98699.88;;;3.10;100.00
51781;BME280;37844;57.126;24.288;2023-02-18T11:31:21;98707.50;;;3.10;100.00
51781;BME280;37844;57.126;24.288;2023-02-18T11:33:48;98702.44;;;3.12;100.00
51781;BME280;37844;57.126;24.288;2023-02-18T11:36:19;98699.91;;;3.13;100.00
51781;BME280;37844;57.126;24.288;2023-02-18T11:38:47;98700.81;;;3.20;100.00
51781;BME280;37844;57.126;24.288;2023-02-18T11:41:15;98705.06;;;3.18;100.00
51781;BME280;37844;57.126;24.288;2023-02-18T11:43:42;98704.19;;;3.16;100.00
51781;BME280;37844;57.126;24.288;2023-02-18T11:46:09;98709.25;;;3.14;100.00
51781;BME280;37844;57.126;24.288;2023-02-18T11:48:35;98711.72;;;3.08;100.00
51781;BME280;37844;57.126;24.288;2023-02-18T11:51:01;98714.28;;;3.10;100.00
51781;BME280;37844;57.126;24.288;2023-02-18T11:55:56;98715.97;;;3.06;100.00
51781;BME280;37844;57.126;24.288;2023-02-18T11:58:23;98716.75;;;3.04;100.00
51781;BME280;37844;57.126;24.288;2023-02-18T12:00:49;98725.31;;;3.07;100.00
51781;BME280;37844;57.126;24.288;2023-02-18T12:06:04;98730.25;;;2.96;100.00
51781;BME280;37844;57.126;24.288;2023-02-18T12:08:31;98739.59;;;2.94;100.00
51781;BME280;37844;57.126;24.288;2023-02-18T12:11:03;98747.22;;;2.96;100.00
51781;BME280;37844;57.126;24.288;2023-02-18T12:21:40;98759.91;;;2.90;100.00
51781;BME280;37844;57.126;24.288;2023-02-18T12:26:38;98757.13;;;2.71;100.00
51781;BME280;37844;57.126;24.288;2023-02-18T12:31:55;98771.44;;;2.62;100.00
51781;BME280;37844;57.126;24.288;2023-02-18T12:50:02;98798.38;;;2.47;100.00
51781;BME280;37844;57.126;24.288;2023-02-18T13:08:26;98830.25;;;2.27;100.00
51781;BME280;37844;57.126;24.288;2023-02-18T13:10:58;98832.75;;;2.24;100.00
51781;BME280;37844;57.126;24.288;2023-02-18T13:13:26;98842.09;;;2.23;100.00
51781;BME280;37844;57.126;24.288;2023-02-18T13:15:56;98834.31;;;2.16;100.00
51781;BME280;37844;57.126;24.288;2023-02-18T13:18:25;98841.91;;;2.12;100.00
51781;BME280;37844;57.126;24.288;2023-02-18T13:20:56;98840.34;;;2.21;100.00
51781;BME280;37844;57.126;24.288;2023-02-18T13:23:25;98847.97;;;2.21;100.00
51781;BME280;37844;57.126;24.288;2023-02-18T13:25:54;98859.88;;;2.23;100.00
51781;BME280;37844;57.126;24.288;2023-02-18T13:36:05;98877.75;;;2.29;100.00
51781;BME280;37844;57.126;24.288;2023-02-18T13:38:55;98881.94;;;2.27;100.00
51781;BME280;37844;57.126;24.288;2023-02-18T13:41:22;98886.19;;;2.27;100.00
51781;BME280;37844;57.126;24.288;2023-02-18T13:43:49;98886.22;;;2.28;100.00
51781;BME280;37844;57.126;24.288;2023-02-18T13:48:43;98898.94;;;2.28;100.00
51781;BME280;37844;57.126;24.288;2023-02-18T13:51:10;98893.00;;;2.29;100.00
51781;BME280;37844;57.126;24.288;2023-02-18T13:53:36;98902.34;;;2.30;100.00
51781;BME280;37844;57.126;24.288;2023-02-18T13:58:53;98914.34;;;2.38;100.00
51781;BME280;37844;57.126;24.288;2023-02-18T14:01:24;98915.31;;;2.46;100.00
51781;BME280;37844;57.126;24.288;2023-02-18T14:03:58;98923.75;;;2.43;100.00
51781;BME280;37844;57.126;24.288;2023-02-18T14:07:15;98932.22;;;2.44;100.00
51781;BME280;37844;57.126;24.288;2023-02-18T14:09:34;98937.22;;;2.39;100.00
51781;BME280;37844;57.126;24.288;2023-02-18T14:13:02;98932.91;;;2.33;100.00
51781;BME280;37844;57.126;24.288;2023-02-18T14:14:55;98943.06;;;2.33;100.00
51781;BME280;37844;57.126;24.288;2023-02-18T14:24:54;98932.63;;;2.18;100.00
51781;BME280;37844;57.126;24.288;2023-02-18T14:27:20;98957.19;;;2.16;100.00
51781;BME280;37844;57.126;24.288;2023-02-18T14:29:48;98963.09;;;2.15;100.00
51781;BME280;37844;57.126;24.288;2023-02-18T14:32:16;98963.97;;;2.17;100.00
51781;BME280;37844;57.126;24.288;2023-02-18T14:50:51;98983.25;;;2.06;100.00
51781;BME280;37844;57.126;24.288;2023-02-18T14:53:18;98980.72;;;2.06;100.00
51781;BME280;37844;57.126;24.288;2023-02-18T14:55:48;98989.19;;;2.06;100.00
51781;BME280;37844;57.126;24.288;2023-02-18T14:58:24;98993.44;;;2.07;100.00
51781;BME280;37844;57.126;24.288;2023-02-18T15:00:52;98991.69;;;2.03;100.00
51781;BME280;37844;57.126;24.288;2023-02-18T15:03:18;98987.44;;;2.04;100.00
51781;BME280;37844;57.126;24.288;2023-02-18T15:05:44;98995.16;;;2.07;100.00
51781;BME280;37844;57.126;24.288;2023-02-18T15:08:18;98996.88;;;2.09;100.00
51781;BME280;37844;57.126;24.288;2023-02-18T15:13:28;98995.19;;;2.10;100.00
51781;BME280;37844;57.126;24.288;2023-02-18T15:15:58;98997.66;;;2.05;100.00